KPDK/PDK METAR and TAF weather

Enter ICAO airport designator
Station Type Date Time Source
KPDK METAR 2018/12/10 07:53 UTC NOAA

KPDK 100753Z AUTO 31005KT 9SM -RA BKN008 OVC030 03/02 A3000 RMK AO2 RAE03B37 SLP173 P0000 T00330022


Station Type Date Time Source
KPDK Decoded METAR 2018/12/10 07:53 UTC NOAA

ATLANTA DE KALB-PEACHTREE, GA, United States (KPDK) 33-53N 084-18W 302M
Dec 10, 2018 - 02:53 AM EST / 2018.12.10 0753 UTC
Wind: from the NW (310 degrees) at 6 MPH (5 KT):0
Visibility: 9 mile(s):0
Sky conditions: overcast
Weather: light rain
Precipitation last hour: A trace
Temperature: 37.9 F (3.3 C)
Dew Point: 36.0 F (2.2 C)
Relative Humidity: 92%
Pressure (altimeter): 30 in. Hg (1015 hPa)
ob: KPDK 100753Z AUTO 31005KT 9SM -RA BKN008 OVC030 03/02 A3000 RMK AO2 RAE03B37 SLP173 P0000 T00330022
cycle: 8

Station Type Date Time Source
KPDK TAF 2018/12/10 06:36 UTC NOAA

TAF KPDK 100533Z 1006/1106 34003KT 5SM -RA BR OVC005
FM101400 32004KT 6SM -RA BR OVC008
FM102000 33006KT P6SM -SHRA SCT008 OVC012
FM110100 32004KT P6SM VCSH BKN015 OVC030


Example: see airport list